Time;durP1;ratioP1;P1;durP2;ratioP2;P2;SDS_P1;SDS_P2;PMS_P1;PMS_P2;Temp;Humidity;BMP_temperature;BMP_pressure;BME280_temperature;BME280_humidity;BME280_pressure;Samples;Min_cycle;Max_cycle;Signal;HPM_P1;HPM_P2
2022/10/08 00:01:56;;;;;;;6.23;3.10;;;13.70;98.00;;;;;;5074963;28;20746;-68
2022/10/08 00:04:23;;;;;;;6.10;3.33;;;13.70;98.00;;;;;;5074710;28;20454;-68
2022/10/08 00:06:52;;;;;;;6.17;3.17;;;13.90;98.00;;;;;;5074937;28;20951;-68
2022/10/08 00:09:19;;;;;;;7.10;3.53;;;13.90;98.00;;;;;;5074491;28;20514;-69
2022/10/08 00:11:46;;;;;;;6.30;3.17;;;13.90;98.00;;;;;;5074783;28;20455;-68
2022/10/08 00:14:14;;;;;;;13.77;3.90;;;14.00;98.00;;;;;;5074547;28;20800;-69
2022/10/08 00:16:41;;;;;;;4.50;3.53;;;14.00;98.00;;;;;;5074801;28;20458;-68
2022/10/08 00:19:11;;;;;;;4.47;2.80;;;13.90;98.00;;;;;;5074526;28;20459;-68
2022/10/08 00:21:40;;;;;;;8.30;3.20;;;14.00;98.00;;;;;;5074616;28;20487;-69
2022/10/08 00:24:14;;;;;;;5.83;3.70;;;14.10;98.00;;;;;;5074434;28;20458;-69
2022/10/08 00:26:42;;;;;;;5.83;2.90;;;14.10;98.00;;;;;;5074658;28;20854;-68
2022/10/08 00:29:12;;;;;;;4.93;2.80;;;14.10;98.00;;;;;;5074154;28;20509;-69
2022/10/08 00:31:41;;;;;;;5.70;3.20;;;14.10;98.00;;;;;;5074381;28;20467;-69
2022/10/08 00:34:10;;;;;;;7.87;4.43;;;14.10;98.00;;;;;;5074296;28;20460;-68
2022/10/08 00:36:39;;;;;;;4.80;3.00;;;14.10;98.00;;;;;;5074514;28;20488;-68
2022/10/08 00:39:11;;;;;;;4.63;2.70;;;14.20;98.00;;;;;;5074249;28;20455;-68
2022/10/08 00:41:39;;;;;;;6.33;3.33;;;14.10;98.00;;;;;;5074307;28;20517;-68
2022/10/08 00:44:39;;;;;;;5.90;3.10;;;14.20;98.00;;;;;;5074136;28;20460;-68
2022/10/08 00:47:13;;;;;;;3.70;3.10;;;14.20;98.00;;;;;;5074300;28;20460;-68
2022/10/08 00:49:40;;;;;;;6.20;3.63;;;14.30;98.00;;;;;;5074110;28;20484;-68
2022/10/08 00:52:11;;;;;;;7.40;3.33;;;14.30;98.00;;;;;;5074113;28;20463;-69
2022/10/08 00:54:39;;;;;;;6.27;3.20;;;14.30;98.00;;;;;;5074205;28;20459;-69
2022/10/08 00:57:07;;;;;;;3.30;2.57;;;14.40;98.00;;;;;;5073902;28;20452;-68
2022/10/08 00:59:35;;;;;;;7.07;3.47;;;14.40;98.00;;;;;;5073909;28;20466;-68
2022/10/08 01:02:02;;;;;;;4.53;3.13;;;14.30;98.00;;;;;;5073680;28;20471;-68
2022/10/08 01:04:29;;;;;;;4.63;2.57;;;14.40;98.00;;;;;;5073778;28;20819;-69
2022/10/08 01:07:04;;;;;;;3.93;2.60;;;14.50;98.00;;;;;;5073613;28;20870;-69
2022/10/08 01:09:35;;;;;;;4.73;2.80;;;14.50;98.00;;;;;;5073517;28;20485;-69
2022/10/08 01:12:10;;;;;;;6.33;3.03;;;14.60;98.00;;;;;;5055886;28;20463;-69
2022/10/08 01:14:48;;;;;;;9.83;3.80;;;14.60;98.00;;;;;;5073672;28;20456;-69
2022/10/08 01:17:23;;;;;;;6.70;3.10;;;14.70;98.00;;;;;;5073476;28;20467;-69
2022/10/08 01:20:12;;;;;;;9.60;3.63;;;14.60;98.00;;;;;;5073428;28;20456;-68
2022/10/08 01:22:59;;;;;;;4.50;2.87;;;14.70;98.00;;;;;;5073414;28;20467;-68
2022/10/08 01:25:36;;;;;;;7.00;3.27;;;14.70;98.00;;;;;;5057099;28;20456;-69
2022/10/08 01:28:11;;;;;;;4.80;2.73;;;14.70;98.00;;;;;;5073107;28;20494;-68
2022/10/08 01:30:42;;;;;;;4.13;2.43;;;14.60;98.00;;;;;;5073441;28;20866;-69
2022/10/08 01:33:16;;;;;;;4.63;3.40;;;14.60;98.00;;;;;;5073285;28;20563;-68
2022/10/08 01:35:49;;;;;;;6.63;3.40;;;14.70;98.00;;;;;;5073197;28;20455;-68
2022/10/08 01:38:19;;;;;;;5.23;2.97;;;14.70;98.00;;;;;;5073196;28;20854;-68
2022/10/08 01:40:48;;;;;;;7.00;3.20;;;14.80;98.00;;;;;;5073242;28;20472;-68
2022/10/08 01:43:21;;;;;;;4.50;2.97;;;14.70;98.00;;;;;;5073283;28;20449;-69
2022/10/08 01:45:55;;;;;;;5.80;3.33;;;14.70;98.00;;;;;;5073201;28;20464;-69
2022/10/08 01:48:27;;;;;;;4.73;3.30;;;14.70;98.00;;;;;;5072974;28;21012;-68
2022/10/08 01:50:58;;;;;;;4.50;3.07;;;14.70;98.00;;;;;;5055231;28;20466;-68
2022/10/08 01:53:32;;;;;;;6.67;3.60;;;14.50;98.00;;;;;;5072903;28;20575;-69
2022/10/08 01:56:02;;;;;;;8.97;3.67;;;14.30;98.00;;;;;;5072744;28;20534;-69
2022/10/08 01:58:38;;;;;;;6.40;3.23;;;14.20;98.00;;;;;;5072858;28;20456;-68
2022/10/08 02:01:11;;;;;;;7.00;3.00;;;14.10;98.00;;;;;;5072535;28;20467;-68
2022/10/08 02:04:31;;;;;;;7.13;3.13;;;14.10;98.00;;;;;;5072643;28;20468;-69
2022/10/08 02:06:26;;;;;;;7.53;3.60;;;14.10;98.00;;;;;;5072376;28;20437;-69
2022/10/08 02:08:53;;;;;;;8.97;3.50;;;14.10;98.00;;;;;;5072386;28;20483;-68
2022/10/08 02:11:21;;;;;;;8.53;3.27;;;14.10;98.00;;;;;;5072283;28;20453;-68
2022/10/08 02:13:49;;;;;;;5.67;2.90;;;14.30;98.00;;;;;;5054772;28;20460;-68
2022/10/08 02:16:25;;;;;;;5.37;2.90;;;14.30;98.00;;;;;;5072326;28;20460;-69
2022/10/08 02:18:57;;;;;;;6.87;3.03;;;14.20;98.00;;;;;;5069949;28;20464;-68
2022/10/08 02:21:26;;;;;;;5.43;3.27;;;14.00;98.00;;;;;;5072566;28;20851;-68
2022/10/08 02:24:00;;;;;;;5.43;2.70;;;13.90;98.00;;;;;;5072281;28;20464;-69
2022/10/08 02:26:33;;;;;;;6.03;3.03;;;13.90;98.00;;;;;;5072264;28;20463;-69
2022/10/08 02:29:04;;;;;;;7.23;3.20;;;13.90;98.00;;;;;;5072144;28;20479;-68
2022/10/08 02:31:37;;;;;;;4.50;2.73;;;13.90;98.00;;;;;;5054416;28;20934;-68
2022/10/08 02:34:08;;;;;;;6.47;3.20;;;13.70;98.00;;;;;;5072120;28;20459;-68
2022/10/08 02:36:40;;;;;;;4.50;3.00;;;13.80;98.00;;;;;;5072216;28;20457;-68
2022/10/08 02:39:10;;;;;;;5.87;3.30;;;13.90;98.00;;;;;;5071892;28;20464;-69
2022/10/08 02:41:40;;;;;;;4.87;2.97;;;13.90;98.00;;;;;;5054010;28;20491;-68
2022/10/08 02:44:19;;;;;;;4.23;2.80;;;14.00;98.00;;;;;;5072091;28;20518;-68
2022/10/08 02:46:49;;;;;;;4.67;3.10;;;14.10;98.00;;;;;;5054302;28;20958;-69
2022/10/08 02:49:22;;;;;;;5.70;2.93;;;14.10;98.00;;;;;;5054050;28;20488;-68
2022/10/08 02:51:52;;;;;;;10.10;3.70;;;14.10;98.00;;;;;;5071759;28;20480;-69
2022/10/08 02:54:22;;;;;;;5.20;3.03;;;14.20;98.00;;;;;;5071688;28;20463;-68
2022/10/08 02:56:54;;;;;;;5.20;3.00;;;14.20;98.00;;;;;;5071522;28;20946;-68
2022/10/08 02:59:24;;;;;;;5.10;2.97;;;14.00;98.00;;;;;;5071583;28;20521;-68
2022/10/08 03:01:57;;;;;;;5.27;2.70;;;14.00;98.00;;;;;;5071438;28;20562;-68
2022/10/08 03:04:27;;;;;;;5.47;3.20;;;14.10;98.00;;;;;;5071702;28;20463;-68
2022/10/08 03:06:56;;;;;;;5.97;3.43;;;14.10;98.00;;;;;;5071588;28;20861;-68
2022/10/08 03:09:25;;;;;;;7.40;3.10;;;14.20;98.00;;;;;;5071425;28;20503;-68
2022/10/08 03:11:53;;;;;;;5.50;3.10;;;14.20;98.00;;;;;;5071739;28;20817;-68
2022/10/08 03:14:23;;;;;;;5.23;3.23;;;14.30;98.00;;;;;;5071315;28;20464;-68
2022/10/08 03:16:51;;;;;;;4.50;2.73;;;14.10;98.00;;;;;;5071498;28;20472;-68
2022/10/08 03:19:19;;;;;;;4.80;3.07;;;14.10;98.00;;;;;;5071511;28;20464;-68
2022/10/08 03:21:48;;;;;;;3.70;2.60;;;14.00;98.00;;;;;;5071285;28;20466;-68
2022/10/08 03:24:16;;;;;;;10.07;3.30;;;13.80;98.00;;;;;;5071116;28;20526;-69
2022/10/08 03:26:43;;;;;;;5.63;3.70;;;13.80;98.00;;;;;;5071283;28;20529;-68
2022/10/08 03:29:11;;;;;;;5.00;3.13;;;13.90;98.00;;;;;;5052785;28;20924;-69
2022/10/08 03:31:39;;;;;;;5.70;3.13;;;13.80;98.00;;;;;;5071062;28;20475;-69
2022/10/08 03:34:06;;;;;;;5.77;2.80;;;13.90;98.00;;;;;;5071237;28;20658;-68
2022/10/08 03:36:33;;;;;;;4.50;2.80;;;13.90;98.00;;;;;;5071228;28;20963;-68
2022/10/08 03:39:00;;;;;;;6.47;3.07;;;14.00;98.00;;;;;;5071103;28;20456;-69
2022/10/08 03:41:30;;;;;;;3.33;2.40;;;13.90;98.00;;;;;;5053540;28;20451;-69
2022/10/08 03:43:57;;;;;;;5.93;3.37;;;13.90;98.00;;;;;;5071216;28;20449;-68
2022/10/08 03:46:25;;;;;;;5.20;3.03;;;13.90;98.00;;;;;;5071579;28;20509;-68
2022/10/08 03:48:54;;;;;;;5.77;3.33;;;13.90;98.00;;;;;;5070886;28;20475;-68
2022/10/08 03:51:22;;;;;;;5.10;3.00;;;13.90;98.00;;;;;;5071049;28;20762;-69
2022/10/08 03:53:49;;;;;;;2.63;2.27;;;13.90;98.00;;;;;;5071299;28;20449;-69
2022/10/08 03:56:18;;;;;;;4.57;2.50;;;14.00;98.00;;;;;;5070978;28;20513;-69
2022/10/08 03:58:46;;;;;;;4.30;2.87;;;14.10;98.00;;;;;;5071064;28;20452;-69
2022/10/08 04:01:15;;;;;;;5.20;2.80;;;14.10;98.00;;;;;;5070738;28;20475;-68
2022/10/08 04:03:44;;;;;;;5.50;2.77;;;14.30;98.00;;;;;;5070811;28;21000;-68
2022/10/08 04:06:13;;;;;;;6.13;3.10;;;14.50;98.00;;;;;;5070707;28;21000;-68
2022/10/08 04:08:40;;;;;;;4.97;2.70;;;14.40;98.00;;;;;;5070791;28;20464;-69
2022/10/08 04:11:09;;;;;;;6.00;3.20;;;14.40;98.00;;;;;;5070386;28;20450;-68
2022/10/08 04:13:37;;;;;;;4.60;3.30;;;14.30;98.00;;;;;;5070835;28;20457;-68
2022/10/08 04:16:06;;;;;;;8.77;3.33;;;14.20;98.00;;;;;;5070686;28;20456;-68
2022/10/08 04:18:33;;;;;;;6.37;3.10;;;14.20;98.00;;;;;;5070631;28;20454;-69
2022/10/08 04:21:02;;;;;;;4.57;3.10;;;14.20;98.00;;;;;;5070586;28;20450;-68
2022/10/08 04:23:32;;;;;;;5.50;2.90;;;14.40;98.00;;;;;;5070669;28;20969;-68
2022/10/08 04:26:00;;;;;;;7.47;3.20;;;14.50;98.00;;;;;;5070724;28;20926;-68
2022/10/08 04:28:28;;;;;;;5.30;2.77;;;14.50;98.00;;;;;;5070765;28;20860;-68
2022/10/08 04:30:56;;;;;;;4.07;2.50;;;14.30;98.00;;;;;;5070475;28;20499;-69
2022/10/08 04:33:24;;;;;;;6.40;3.10;;;14.20;98.00;;;;;;5070711;28;20452;-68
2022/10/08 04:35:52;;;;;;;5.93;3.50;;;14.20;98.00;;;;;;5053153;28;20463;-68
2022/10/08 04:38:19;;;;;;;3.40;2.23;;;14.20;98.00;;;;;;5070863;28;20460;-69
2022/10/08 04:40:48;;;;;;;5.00;3.30;;;14.10;98.00;;;;;;5053714;28;20491;-68
2022/10/08 04:43:16;;;;;;;4.70;3.10;;;14.10;98.00;;;;;;5056564;28;20463;-68
2022/10/08 04:45:44;;;;;;;4.20;3.07;;;14.10;98.00;;;;;;5074521;28;20465;-69
2022/10/08 04:48:12;;;;;;;4.80;3.27;;;14.00;98.00;;;;;;5074220;28;20459;-69
2022/10/08 04:50:40;;;;;;;4.83;2.67;;;14.10;98.00;;;;;;5056364;28;20552;-68
2022/10/08 04:53:07;;;;;;;8.43;3.60;;;14.00;98.00;;;;;;5073955;28;20952;-69
2022/10/08 04:55:34;;;;;;;4.27;2.57;;;14.00;98.00;;;;;;5074299;28;20459;-68
2022/10/08 04:58:02;;;;;;;5.20;3.00;;;14.00;98.00;;;;;;5073837;28;20467;-69
2022/10/08 05:00:31;;;;;;;6.60;3.83;;;14.00;98.00;;;;;;5073827;28;20448;-69
2022/10/08 05:02:58;;;;;;;4.40;2.67;;;13.90;98.00;;;;;;5055885;28;21026;-68
2022/10/08 05:05:27;;;;;;;4.73;2.83;;;14.00;98.00;;;;;;5073868;28;20457;-69
2022/10/08 05:07:55;;;;;;;5.30;2.90;;;14.00;98.00;;;;;;5073798;28;20468;-68
2022/10/08 05:10:23;;;;;;;6.57;3.20;;;14.00;98.00;;;;;;5073523;28;20585;-68
2022/10/08 05:12:50;;;;;;;6.73;3.57;;;14.00;98.00;;;;;;5073640;28;20491;-68
2022/10/08 05:15:18;;;;;;;3.97;3.20;;;14.00;98.00;;;;;;5073563;28;20967;-68
2022/10/08 05:17:45;;;;;;;8.83;3.57;;;14.00;98.00;;;;;;5073528;28;20455;-68
2022/10/08 05:20:12;;;;;;;6.23;3.20;;;14.10;98.00;;;;;;5055683;28;20837;-69
2022/10/08 05:22:40;;;;;;;4.00;2.40;;;14.10;98.00;;;;;;5073514;28;20460;-68
2022/10/08 05:25:07;;;;;;;9.40;2.90;;;14.20;98.00;;;;;;5055810;28;20468;-69
2022/10/08 05:27:34;;;;;;;7.10;3.43;;;14.40;98.00;;;;;;5073151;28;20460;-69
2022/10/08 05:30:02;;;;;;;5.40;3.00;;;14.60;98.00;;;;;;5073160;28;20485;-69
2022/10/08 05:32:30;;;;;;;4.37;2.90;;;14.60;98.00;;;;;;5055512;28;20496;-69
2022/10/08 05:34:57;;;;;;;5.90;3.30;;;14.50;98.00;;;;;;5073107;28;20459;-68
2022/10/08 05:37:24;;;;;;;5.63;2.97;;;14.40;98.00;;;;;;5055587;28;20516;-69
2022/10/08 05:39:52;;;;;;;5.00;2.73;;;14.30;98.00;;;;;;5073067;28;20453;-69
2022/10/08 05:42:19;;;;;;;6.60;3.73;;;14.30;98.00;;;;;;5073333;28;20842;-68
2022/10/08 05:44:46;;;;;;;5.23;3.20;;;14.30;98.00;;;;;;5073437;28;20459;-69
2022/10/08 05:47:13;;;;;;;3.93;3.07;;;14.10;98.00;;;;;;5071837;28;20466;-68
2022/10/08 05:49:41;;;;;;;6.17;3.80;;;14.20;98.00;;;;;;5073030;28;20475;-69
2022/10/08 05:52:08;;;;;;;7.20;3.60;;;14.20;98.00;;;;;;5072171;28;20448;-69
2022/10/08 05:54:35;;;;;;;6.40;3.30;;;14.10;98.00;;;;;;5073023;28;20455;-70
2022/10/08 05:57:04;;;;;;;9.10;3.23;;;14.10;98.00;;;;;;5072742;28;20807;-69
2022/10/08 05:59:31;;;;;;;4.60;3.07;;;14.00;98.00;;;;;;5073067;28;20473;-69
2022/10/08 06:01:58;;;;;;;10.10;4.97;;;14.10;98.00;;;;;;5054856;28;20471;-69
2022/10/08 06:04:25;;;;;;;5.63;2.90;;;14.00;98.00;;;;;;5072687;28;20559;-69
2022/10/08 06:06:54;;;;;;;7.07;3.70;;;14.10;98.00;;;;;;5072491;28;20463;-69
2022/10/08 06:09:21;;;;;;;6.20;3.10;;;14.20;98.00;;;;;;5072548;28;20451;-69
2022/10/08 06:11:49;;;;;;;6.27;3.60;;;14.30;98.00;;;;;;5072422;28;20481;-68
2022/10/08 06:14:18;;;;;;;4.50;3.00;;;14.20;98.00;;;;;;5072512;28;20860;-69
2022/10/08 06:16:45;;;;;;;4.40;3.17;;;14.10;98.00;;;;;;5072409;28;20974;-69
2022/10/08 06:19:12;;;;;;;7.17;3.30;;;14.20;98.00;;;;;;5072310;28;20463;-68
2022/10/08 06:21:39;;;;;;;6.50;3.63;;;14.30;98.00;;;;;;5072259;28;20543;-69
2022/10/08 06:24:10;;;;;;;6.40;3.50;;;14.20;98.00;;;;;;5072229;28;20456;-69
2022/10/08 06:26:39;;;;;;;9.50;3.90;;;14.20;98.00;;;;;;5072300;28;20464;-69
2022/10/08 06:29:07;;;;;;;5.47;3.33;;;14.30;98.00;;;;;;5071981;28;20476;-69
2022/10/08 06:31:35;;;;;;;4.70;3.10;;;14.30;98.00;;;;;;5072119;28;20477;-69
2022/10/08 06:34:03;;;;;;;6.17;3.30;;;14.30;98.00;;;;;;5072134;28;20514;-69
2022/10/08 06:36:33;;;;;;;5.50;3.63;;;14.50;98.00;;;;;;5072159;28;20821;-69
2022/10/08 06:39:01;;;;;;;6.70;3.80;;;14.50;98.00;;;;;;5072275;28;20459;-69
2022/10/08 06:41:32;;;;;;;8.50;3.50;;;14.50;98.00;;;;;;5072065;28;20456;-69
2022/10/08 06:43:59;;;;;;;5.30;3.17;;;14.60;98.00;;;;;;5072227;28;20459;-69
2022/10/08 06:46:26;;;;;;;8.73;4.03;;;14.50;98.00;;;;;;5072036;28;20468;-64
2022/10/08 06:48:54;;;;;;;8.20;3.47;;;14.50;98.00;;;;;;5071839;28;20455;-64
2022/10/08 06:51:21;;;;;;;6.47;3.70;;;14.50;98.00;;;;;;5070458;28;21024;-64
2022/10/08 06:53:53;;;;;;;7.27;3.50;;;14.50;98.00;;;;;;5071696;28;20458;-64
2022/10/08 06:56:21;;;;;;;5.30;3.17;;;14.50;98.00;;;;;;5071563;28;20496;-64
2022/10/08 06:58:50;;;;;;;6.50;3.77;;;14.50;98.00;;;;;;5071585;28;20455;-65
2022/10/08 07:01:19;;;;;;;7.20;3.30;;;14.50;98.00;;;;;;5071413;28;20499;-64
2022/10/08 07:03:50;;;;;;;4.63;3.30;;;14.60;98.00;;;;;;5071466;28;20465;-64
2022/10/08 07:06:17;;;;;;;5.20;3.23;;;14.70;98.00;;;;;;5053995;28;20518;-64
2022/10/08 07:08:45;;;;;;;6.80;3.27;;;14.90;98.00;;;;;;5071411;28;20467;-64
2022/10/08 07:11:13;;;;;;;6.13;3.70;;;15.10;98.00;;;;;;5071490;28;21030;-64
2022/10/08 07:13:40;;;;;;;7.00;3.67;;;15.20;98.00;;;;;;5071212;28;20475;-64
2022/10/08 07:16:11;;;;;;;6.40;3.37;;;15.30;98.00;;;;;;5071274;28;20460;-64
2022/10/08 07:18:39;;;;;;;6.83;3.60;;;15.40;98.00;;;;;;5071289;28;20472;-64
2022/10/08 07:21:10;;;;;;;7.67;3.83;;;15.60;98.00;;;;;;5071202;28;20867;-64
2022/10/08 07:23:37;;;;;;;6.13;3.40;;;15.70;98.00;;;;;;5071323;28;20464;-64
2022/10/08 07:26:06;;;;;;;7.90;3.50;;;15.80;98.00;;;;;;5071108;28;20510;-64
2022/10/08 07:28:36;;;;;;;8.17;3.83;;;15.80;98.00;;;;;;5071444;28;20827;-64
2022/10/08 07:31:05;;;;;;;7.90;3.63;;;15.70;98.00;;;;;;5071041;28;20492;-64
2022/10/08 07:33:33;;;;;;;4.50;2.90;;;15.70;98.00;;;;;;5071614;28;20460;-64
2022/10/08 07:36:09;;;;;;;7.03;3.60;;;15.90;98.00;;;;;;5071115;28;20449;-64
2022/10/08 07:38:36;;;;;;;6.03;3.90;;;15.90;98.00;;;;;;5071225;28;20459;-65
2022/10/08 07:41:03;;;;;;;9.13;4.07;;;16.00;98.00;;;;;;5071171;28;20502;-64
2022/10/08 07:43:30;;;;;;;7.13;4.10;;;16.00;98.00;;;;;;5071559;28;20517;-64
2022/10/08 07:45:58;;;;;;;8.53;3.77;;;16.10;98.00;;;;;;5053572;28;20460;-64
2022/10/08 07:48:27;;;;;;;5.30;2.87;;;16.10;98.00;;;;;;5069438;28;20951;-65
2022/10/08 07:51:05;;;;;;;7.47;3.80;;;16.10;98.00;;;;;;5069568;28;20557;-65
2022/10/08 07:53:32;;;;;;;6.17;3.50;;;16.20;98.00;;;;;;5068539;28;20456;-65
2022/10/08 07:55:59;;;;;;;7.13;4.20;;;16.20;98.00;;;;;;5068671;28;20526;-65
2022/10/08 07:58:26;;;;;;;7.27;3.20;;;16.30;98.00;;;;;;5069237;28;20958;-64
2022/10/08 08:00:56;;;;;;;8.60;4.03;;;16.40;98.00;;;;;;5073222;28;20464;-64
2022/10/08 08:03:24;;;;;;;6.67;3.60;;;16.60;98.00;;;;;;5068203;28;20464;-65
2022/10/08 08:05:52;;;;;;;9.53;3.10;;;16.50;98.00;;;;;;5068311;28;20441;-65
2022/10/08 08:08:23;;;;;;;6.40;3.20;;;16.60;98.00;;;;;;5068417;28;20518;-65
2022/10/08 08:10:56;;;;;;;5.70;2.70;;;16.70;98.00;;;;;;5068130;28;20528;-65
2022/10/08 08:13:23;;;;;;;5.10;2.87;;;16.70;98.00;;;;;;5068500;28;20526;-65
2022/10/08 08:15:56;;;;;;;3.90;2.20;;;16.80;98.00;;;;;;5071740;28;20456;-65
2022/10/08 08:18:23;;;;;;;6.07;3.10;;;16.80;98.00;;;;;;5074716;28;20539;-65
2022/10/08 08:20:59;;;;;;;6.57;3.00;;;16.90;98.00;;;;;;5074512;28;20452;-66
2022/10/08 08:23:30;;;;;;;7.80;3.67;;;16.90;98.00;;;;;;5074726;28;20480;-66
2022/10/08 08:26:00;;;;;;;3.07;2.30;;;16.90;98.00;;;;;;5073032;28;20453;-65
2022/10/08 08:28:27;;;;;;;6.30;2.40;;;16.90;98.00;;;;;;5074403;28;20464;-66
2022/10/08 08:30:56;;;;;;;2.87;2.17;;;17.10;98.00;;;;;;5074189;28;21033;-66
2022/10/08 08:33:23;;;;;;;5.73;2.10;;;17.30;98.00;;;;;;5074267;28;20457;-66
2022/10/08 08:35:51;;;;;;;8.50;2.83;;;17.10;98.00;;;;;;5056717;28;20547;-66
2022/10/08 08:38:19;;;;;;;3.40;2.10;;;17.10;98.00;;;;;;5074241;28;21019;-65
2022/10/08 08:40:48;;;;;;;3.33;2.47;;;17.00;98.00;;;;;;5074250;28;20946;-66
2022/10/08 08:43:16;;;;;;;2.70;2.00;;;17.00;98.00;;;;;;5074586;28;20479;-66
2022/10/08 08:45:45;;;;;;;2.03;1.80;;;17.00;98.00;;;;;;5074421;28;20730;-65
2022/10/08 08:48:19;;;;;;;4.97;2.30;;;16.90;98.00;;;;;;5074124;28;20487;-66
2022/10/08 08:50:49;;;;;;;3.27;2.20;;;16.90;98.00;;;;;;5080608;28;20532;-66
2022/10/08 08:53:18;;;;;;;2.83;2.07;;;17.00;98.00;;;;;;5076688;28;20452;-66
2022/10/08 08:55:50;;;;;;;3.10;2.20;;;17.00;98.00;;;;;;5094121;28;20454;-66
2022/10/08 08:58:26;;;;;;;2.80;1.90;;;16.90;98.00;;;;;;5094125;28;20459;-66
2022/10/08 09:00:58;;;;;;;3.77;1.80;;;17.00;98.00;;;;;;5094006;28;20474;-66
2022/10/08 09:03:29;;;;;;;8.23;3.10;;;16.90;98.00;;;;;;5094086;28;20521;-66
2022/10/08 09:06:00;;;;;;;4.17;2.20;;;16.90;98.00;;;;;;5093777;28;20458;-65
2022/10/08 09:08:35;;;;;;;7.70;2.70;;;17.30;98.00;;;;;;5056256;28;21012;-66
2022/10/08 09:11:05;;;;;;;2.77;1.90;;;17.50;98.00;;;;;;5073489;28;20490;-66
2022/10/08 09:13:42;;;;;;;3.70;1.93;;;17.70;98.00;;;;;;5073407;28;20460;-66
2022/10/08 09:16:12;;;;;;;1.97;1.80;;;17.70;98.00;;;;;;5073276;28;20457;-65
2022/10/08 09:18:40;;;;;;;3.00;1.77;;;17.70;98.00;;;;;;5073449;28;20452;-66
2022/10/08 09:21:07;;;;;;;3.60;2.10;;;17.70;98.00;;;;;;5073711;28;20855;-66
2022/10/08 09:23:34;;;;;;;2.13;1.80;;;17.90;98.00;;;;;;5055585;28;20805;-66
2022/10/08 09:26:14;;;;;;;2.50;1.70;;;17.90;98.00;;;;;;5058064;28;20461;-66
2022/10/08 09:28:44;;;;;;;3.77;1.77;;;18.00;98.00;;;;;;5069914;28;20456;-67
2022/10/08 09:31:22;;;;;;;1.70;1.60;;;17.90;98.00;;;;;;5076963;28;20912;-66
2022/10/08 09:34:00;;;;;;;5.40;2.10;;;17.90;98.00;;;;;;5071441;28;20907;-65
2022/10/08 09:36:40;;;;;;;2.43;2.00;;;18.10;98.00;;;;;;5070721;28;20467;-66
2022/10/08 09:39:17;;;;;;;2.03;1.70;;;18.20;98.00;;;;;;5063055;28;20456;-66
2022/10/08 09:41:47;;;;;;;3.50;1.90;;;18.20;98.00;;;;;;5070710;28;20472;-66
2022/10/08 09:44:20;;;;;;;2.60;1.83;;;18.40;98.00;;;;;;5071030;28;20441;-66
2022/10/08 09:46:48;;;;;;;2.87;1.97;;;18.40;98.00;;;;;;5071286;28;21643;-66
2022/10/08 09:49:37;;;;;;;2.50;1.77;;;18.20;98.00;;;;;;5069110;28;20548;-66
2022/10/08 09:52:10;;;;;;;6.50;2.07;;;18.30;98.00;;;;;;5064640;28;20493;-65
2022/10/08 09:54:45;;;;;;;2.83;1.83;;;18.50;98.00;;;;;;5053728;28;20457;-66
2022/10/08 09:57:17;;;;;;;2.40;1.77;;;18.70;98.00;;;;;;5071002;28;20460;-66
2022/10/08 09:59:51;;;;;;;3.93;1.80;;;18.90;98.00;;;;;;5071158;28;20457;-65
2022/10/08 10:02:32;;;;;;;5.80;2.03;;;19.30;98.00;;;;;;5070688;28;20514;-66
2022/10/08 10:05:00;;;;;;;4.30;1.80;;;19.40;98.00;;;;;;5062431;28;20978;-67
2022/10/08 10:07:42;;;;;;;1.63;1.47;;;19.50;98.00;;;;;;5070746;28;20453;-66
2022/10/08 10:10:18;;;;;;;8.20;2.00;;;19.70;98.00;;;;;;5034907;28;20460;-66
2022/10/08 10:13:00;;;;;;;4.53;2.23;;;19.50;97.70;;;;;;5070197;28;20514;-65
2022/10/08 10:15:34;;;;;;;2.73;2.10;;;19.20;98.00;;;;;;5070442;28;20471;-65
2022/10/08 10:18:08;;;;;;;6.50;1.80;;;19.50;98.00;;;;;;5070250;28;20931;-66
2022/10/08 10:20:40;;;;;;;5.43;1.60;;;19.50;98.00;;;;;;5076843;28;20460;-66
2022/10/08 10:23:13;;;;;;;2.63;1.83;;;19.40;98.00;;;;;;5069750;28;20548;-66
2022/10/08 10:25:46;;;;;;;4.23;2.20;;;19.10;98.00;;;;;;5069595;28;20449;-66
2022/10/08 10:28:19;;;;;;;2.43;1.60;;;18.90;98.00;;;;;;5069914;28;20452;-66
2022/10/08 10:30:55;;;;;;;3.10;1.70;;;18.60;98.00;;;;;;5069086;28;20452;-66
2022/10/08 10:33:26;;;;;;;4.97;2.20;;;18.40;98.00;;;;;;5069326;28;20453;-65
2022/10/08 10:35:58;;;;;;;2.37;1.60;;;18.70;98.00;;;;;;5069292;28;20460;-66
2022/10/08 10:38:28;;;;;;;3.20;1.90;;;19.00;98.00;;;;;;5069112;28;20460;-66
2022/10/08 10:41:09;;;;;;;2.60;1.63;;;19.20;98.00;;;;;;5069461;28;20449;-66
2022/10/08 10:43:49;;;;;;;1.83;1.60;;;19.50;98.00;;;;;;5069832;28;20457;-66
2022/10/08 10:46:24;;;;;;;2.37;1.77;;;19.70;97.90;;;;;;5069448;28;20468;-66
2022/10/08 10:48:51;;;;;;;1.93;1.60;;;19.80;98.00;;;;;;5069686;28;20468;-65
2022/10/08 10:51:39;;;;;;;3.60;1.60;;;19.60;96.90;;;;;;5049216;28;20590;-66
2022/10/08 10:54:21;;;;;;;12.00;2.43;;;19.60;98.00;;;;;;5069145;28;20973;-67
2022/10/08 10:56:54;;;;;;;2.50;1.93;;;19.70;97.50;;;;;;5069390;28;20453;-66
2022/10/08 10:59:34;;;;;;;2.57;1.60;;;19.60;98.00;;;;;;5069282;28;20472;-66
2022/10/08 11:02:13;;;;;;;5.50;1.97;;;19.30;97.80;;;;;;5068975;28;20472;-66
2022/10/08 11:04:49;;;;;;;2.43;1.90;;;19.10;98.00;;;;;;5069325;28;20463;-65
2022/10/08 11:07:40;;;;;;;1.83;1.70;;;18.90;98.00;;;;;;5069020;28;20460;-67
2022/10/08 11:10:17;;;;;;;1.90;1.50;;;18.60;98.00;;;;;;5068964;28;20445;-66
2022/10/08 11:12:52;;;;;;;1.97;1.50;;;18.50;98.00;;;;;;5069321;28;20575;-66
2022/10/08 11:15:29;;;;;;;1.87;1.40;;;18.50;96.30;;;;;;5069426;28;20518;-66
2022/10/08 11:18:18;;;;;;;10.27;1.93;;;18.90;95.20;;;;;;5061238;28;20488;-65
2022/10/08 11:20:59;;;;;;;2.33;1.67;;;19.20;95.00;;;;;;5068699;28;20453;-66
2022/10/08 11:23:41;;;;;;;4.03;1.83;;;19.70;95.30;;;;;;5068975;28;20461;-65
2022/10/08 11:26:17;;;;;;;1.40;1.27;;;19.80;93.20;;;;;;5068776;28;20466;-65
2022/10/08 11:28:52;;;;;;;1.73;1.50;;;19.80;93.40;;;;;;5068527;28;20472;-64
2022/10/08 11:31:31;;;;;;;1.57;1.40;;;20.10;91.70;;;;;;5068892;28;20480;-64
2022/10/08 11:34:02;;;;;;;2.73;1.60;;;20.40;91.00;;;;;;5061078;28;20825;-63
2022/10/08 11:36:37;;;;;;;1.60;1.43;;;20.50;91.60;;;;;;5068686;28;20484;-64
2022/10/08 11:39:15;;;;;;;3.47;1.80;;;20.70;91.90;;;;;;5068800;28;20474;-64
2022/10/08 11:41:52;;;;;;;6.40;2.07;;;20.90;91.40;;;;;;5068926;28;20457;-64
2022/10/08 11:44:20;;;;;;;2.70;1.67;;;21.20;89.80;;;;;;5068775;28;20452;-63
2022/10/08 11:46:49;;;;;;;2.07;1.50;;;21.50;90.30;;;;;;5051490;28;20511;-63
2022/10/08 11:49:48;;;;;;;7.53;1.93;;;21.40;88.60;;;;;;5049401;28;20466;-64
2022/10/08 11:52:16;;;;;;;2.33;1.60;;;21.30;87.50;;;;;;5072072;28;20519;-64
2022/10/08 11:54:49;;;;;;;1.63;1.43;;;21.60;88.40;;;;;;5055329;28;20456;-64
2022/10/08 11:57:20;;;;;;;3.70;1.80;;;21.90;86.30;;;;;;5072456;28;20947;-65
2022/10/08 11:59:55;;;;;;;2.43;1.93;;;21.50;85.20;;;;;;5055200;28;20464;-66
2022/10/08 12:02:27;;;;;;;3.30;1.60;;;21.50;88.10;;;;;;5064235;28;20561;-64
2022/10/08 12:04:57;;;;;;;2.20;1.60;;;21.60;87.00;;;;;;5072529;28;20548;-64
2022/10/08 12:07:29;;;;;;;2.57;1.60;;;21.40;86.10;;;;;;5054374;28;20514;-64
2022/10/08 12:10:24;;;;;;;1.87;1.53;;;21.40;87.30;;;;;;5072472;28;20465;-63
2022/10/08 12:13:29;;;;;;;1.70;1.40;;;21.40;85.10;;;;;;5072445;28;20553;-63
2022/10/08 12:16:03;;;;;;;1.90;1.60;;;21.50;85.50;;;;;;5064058;28;20459;-64
2022/10/08 12:18:46;;;;;;;2.23;1.60;;;21.80;83.60;;;;;;5072277;28;20457;-64
2022/10/08 12:21:50;;;;;;;1.40;1.30;;;21.70;84.60;;;;;;5069391;28;20456;-64
2022/10/08 12:24:53;;;;;;;2.57;1.57;;;21.90;83.30;;;;;;5072127;28;20463;-64
2022/10/08 12:27:29;;;;;;;1.83;1.50;;;22.00;85.30;;;;;;5052415;28;20629;-65
2022/10/08 12:30:00;;;;;;;3.57;1.53;;;21.90;85.10;;;;;;5072089;28;20461;-64
2022/10/08 12:32:29;;;;;;;2.80;1.50;;;22.00;87.60;;;;;;5071809;28;20494;-64
2022/10/08 12:35:00;;;;;;;2.17;1.60;;;22.10;87.20;;;;;;5072091;28;20505;-64
2022/10/08 12:37:50;;;;;;;2.83;1.77;;;22.30;87.50;;;;;;5073595;28;20449;-64
2022/10/08 12:40:26;;;;;;;2.77;1.80;;;22.40;86.20;;;;;;5074295;28;20492;-64
2022/10/08 12:43:13;;;;;;;6.23;1.40;;;22.50;83.90;;;;;;5074353;28;20456;-64
2022/10/08 12:45:50;;;;;;;2.43;1.80;;;22.20;80.90;;;;;;5074315;28;20459;-64
2022/10/08 12:48:28;;;;;;;1.77;1.57;;;21.90;82.70;;;;;;5040896;28;20457;-64
2022/10/08 12:51:06;;;;;;;2.00;1.43;;;21.60;82.80;;;;;;5074503;28;20955;-64
2022/10/08 12:53:34;;;;;;;2.73;1.80;;;21.60;83.10;;;;;;5074236;28;20487;-64
2022/10/08 12:56:01;;;;;;;4.00;1.80;;;21.80;84.30;;;;;;5074142;28;20464;-64
2022/10/08 12:58:31;;;;;;;5.50;1.80;;;22.00;83.60;;;;;;5073890;28;21009;-64
2022/10/08 13:01:03;;;;;;;2.77;1.80;;;22.40;84.40;;;;;;5073993;28;20473;-64
2022/10/08 13:03:30;;;;;;;2.17;1.60;;;22.50;83.70;;;;;;5073480;28;20457;-65
2022/10/08 13:06:15;;;;;;;1.97;1.60;;;22.90;85.30;;;;;;5073694;28;20808;-65
2022/10/08 13:08:42;;;;;;;1.67;1.60;;;23.20;82.70;;;;;;5055989;28;20507;-65